WSSS/SIN METAR and TAF weather

Enter ICAO airport designator
Station Type Date Time Source
WSSS METAR 2018/12/17 16:30 UTC NOAA

WSSS 171630Z 02003KT 330V070 9999 FEW018 BKN150 27/24 Q1013 NOSIG


Station Type Date Time Source
WSSS Decoded METAR 2018/12/17 16:30 UTC NOAA

Singapore / Changi Airport, Singapore (WSSS) 01-22N 103-59E 16M
Dec 17, 2018 - 11:30 AM EST / 2018.12.17 1630 UTC
Wind: from the NNE (020 degrees) at 3 MPH (3 KT) (direction variable):0
Visibility: greater than 7 mile(s):0
Sky conditions: mostly cloudy
Temperature: 80 F (27 C)
Dew Point: 75 F (24 C)
Relative Humidity: 83%
Pressure (altimeter): 29.91 in. Hg (1013 hPa)
ob: WSSS 171630Z 02003KT 330V070 9999 FEW018 BKN150 27/24 Q1013 NOSIG
cycle: 16

Station Type Date Time Source
WSSS TAF 2018/12/17 12:09 UTC NOAA

TAF WSSS 171100Z 1712/1818 09005KT 9999 FEW015CB SCT020
TEMPO 1803/1806 4500 SHRA FEW012CB BKN015


Example: see airport list